Pagina principale
METAR-TAF:

METAR-TAF

Aeroporti :

La Chaux-de-Fonds, Svizzera

latitudine: 47-05-03N, longitudine: 006-47-37E, altezza: 1027 m

Osservazione

Il bollettino è stato emesso 37 minuti fa, alle 09:50 UTC
Vento 3 kt da nord-ovest, variando fra ovest e nord-est
Temperature 2°C
Umidità 64%
Pressione 1015 hPa
Visibilità 10 km o più
nessuna nube inferiore a 1500 m e nessun cumulonembo

METAR: LSGC 090950Z 32003KT 260V050 CAVOK 02/M04 Q1015

Ora: 11:27 (10:27 UTC)

Previsione

Il bollettino è stato emesso 2 ore e 2 minuti fa, alle 08:25 UTC
Previsione valida dal 09 alle 09 UTC al 09 alle 18 UTC
Vento 2 kt da direzioni variabili
Visibilità 10 km o più
nessuna nube inferiore a 1500 m e nessun cumulonembo
Evoluzione graduale
dal 09 alle 09 UTC al 09 alle 12 UTC
Visibilità 10 km o più
Nubi sparse ad un'altezza di 2000 ft

TAF: LSGC 090825Z 0909/0918 VRB02KT CAVOK BECMG 0909/0912 9999 SCT020

Osservazioni e previsioni meteorologiche di più di 4000 aeroporti (messaggi METAR e TAF).

Le stazioni disponibili sono rappresentate dai dischi gialli e rossi sulla carta.

Puntare il mouse per vedere il nome della stazione.

Clicca sopra per visualizzare le osservazioni e previsioni meteorologiche.

Per cambiare la mappa : fare clic sui pulsanti verdi con una croce nera per ingrandire, il pulsante verde con un trattino per diminuire, o sulla freccia verde per le mappe adiacenti.


METAR-TAF: